Time;durP1;ratioP1;P1;durP2;ratioP2;P2;SDS_P1;SDS_P2;PMS_P1;PMS_P2;Temp;Humidity;BMP_temperature;BMP_pressure;BME280_temperature;BME280_humidity;BME280_pressure;Samples;Min_cycle;Max_cycle;Signal;HPM_P1;HPM_P2
2022/09/30 00:01:25;;;;;;;2.58;1.80;;;13.60;99.90;;;;;;5046257;28;20119;-65
2022/09/30 00:03:52;;;;;;;3.65;1.85;;;12.60;99.90;;;;;;5051519;28;20035;-64
2022/09/30 00:06:19;;;;;;;2.65;1.90;;;12.60;99.90;;;;;;5050618;28;20044;-65
2022/09/30 00:08:45;;;;;;;3.08;1.85;;;13.60;99.90;;;;;;5048214;28;20084;-64
2022/09/30 00:11:15;;;;;;;1.48;1.38;;;13.30;99.90;;;;;;5048475;28;20052;-64
2022/09/30 00:13:42;;;;;;;2.55;2.05;;;13.10;99.90;;;;;;5050620;28;20047;-64
2022/09/30 00:16:09;;;;;;;82.38;2.88;;;12.60;99.90;;;;;;5050986;28;20080;-64
2022/09/30 00:18:36;;;;;;;131.60;5.70;;;12.60;99.90;;;;;;5042860;28;20037;-65
2022/09/30 00:21:02;;;;;;;28.35;1.75;;;13.40;99.90;;;;;;5031747;28;20041;-64
2022/09/30 00:23:28;;;;;;;1.67;1.10;;;13.60;99.90;;;;;;5050064;28;20106;-64
2022/09/30 00:25:58;;;;;;;1.50;1.40;;;12.60;99.90;;;;;;5051246;28;20396;-65
2022/09/30 00:28:24;;;;;;;79.57;3.28;;;13.50;99.90;;;;;;5050015;28;20041;-64
2022/09/30 00:30:49;;;;;;;188.05;4.93;;;12.90;99.90;;;;;;5048720;28;20060;-65
2022/09/30 00:33:15;;;;;;;8.50;0.90;;;12.80;99.90;;;;;;5040771;28;20042;-64
2022/09/30 00:35:40;;;;;;;2.33;0.70;;;13.50;99.90;;;;;;5031470;28;20052;-65
2022/09/30 00:38:06;;;;;;;114.32;2.80;;;12.50;99.90;;;;;;5030017;28;20038;-64
2022/09/30 00:40:32;;;;;;;82.15;1.70;;;12.60;99.90;;;;;;5031447;28;20047;-64
2022/09/30 00:42:57;;;;;;;318.95;6.13;;;12.50;99.90;;;;;;5044281;28;20166;-65
2022/09/30 00:45:26;;;;;;;189.70;5.07;;;13.10;99.90;;;;;;5049297;28;20051;-64
2022/09/30 00:47:53;;;;;;;128.82;4.53;;;13.10;99.90;;;;;;5050094;28;20503;-64
2022/09/30 00:50:33;;;;;;;139.57;3.67;;;12.40;99.90;;;;;;5031056;28;20037;-64
2022/09/30 00:52:58;;;;;;;253.38;4.50;;;12.00;99.90;;;;;;5031238;28;20044;-64
2022/09/30 00:56:00;;;;;;;575.78;9.18;;;12.70;99.90;;;;;;5031020;28;20041;-64
2022/09/30 00:58:40;;;;;;;535.83;9.57;;;12.70;99.90;;;;;;5009334;28;20419;-64
2022/09/30 01:01:06;;;;;;;372.52;6.70;;;11.90;99.90;;;;;;5030820;28;20041;-64
2022/09/30 01:03:54;;;;;;;251.65;3.92;;;12.20;99.90;;;;;;5048251;28;21577;-64
2022/09/30 01:06:22;;;;;;;1.02;0.70;;;12.20;99.90;;;;;;5049872;28;20375;-64
2022/09/30 01:08:48;;;;;;;4.03;0.75;;;12.30;99.90;;;;;;5050937;28;20052;-64
2022/09/30 01:11:14;;;;;;;43.33;1.50;;;12.40;99.90;;;;;;5045543;28;20046;-64
2022/09/30 01:13:43;;;;;;;148.43;2.85;;;12.00;99.90;;;;;;5052421;28;20040;-64
2022/09/30 01:16:24;;;;;;;123.85;2.92;;;12.30;99.90;;;;;;5054587;28;20495;-65
2022/09/30 01:19:15;;;;;;;333.30;5.57;;;12.40;99.90;;;;;;5042612;28;20073;-64
2022/09/30 01:21:51;;;;;;;560.60;12.95;;;12.20;99.90;;;;;;5035113;28;20049;-64
2022/09/30 01:24:42;;;;;;;352.60;6.07;;;11.20;99.90;;;;;;5054740;28;20514;-64
2022/09/30 01:27:38;;;;;;;144.15;3.50;;;11.60;99.90;;;;;;5052780;28;20136;-65
2022/09/30 01:30:06;;;;;;;24.30;1.60;;;11.00;99.90;;;;;;5053106;28;20548;-64
2022/09/30 01:32:40;;;;;;;18.35;1.33;;;12.00;99.90;;;;;;5053015;28;20499;-64
2022/09/30 01:35:15;;;;;;;3.40;1.30;;;11.80;99.90;;;;;;5053484;28;20260;-64
2022/09/30 01:37:53;;;;;;;1.30;1.20;;;11.90;99.90;;;;;;5054484;28;20494;-64
2022/09/30 01:40:25;;;;;;;2.75;1.50;;;12.20;99.90;;;;;;5041035;28;20077;-64
2022/09/30 01:43:10;;;;;;;89.30;3.08;;;11.70;99.90;;;;;;5045055;28;20036;-64
2022/09/30 01:45:51;;;;;;;10.57;1.00;;;11.30;99.90;;;;;;5036650;28;20111;-65
2022/09/30 01:48:49;;;;;;;536.53;11.13;;;12.10;99.90;;;;;;5054229;28;20111;-64
2022/09/30 01:51:33;;;;;;;228.55;5.30;;;11.40;99.90;;;;;;5053904;28;20198;-64
2022/09/30 01:54:20;;;;;;;65.15;2.70;;;12.00;99.90;;;;;;5051253;28;20124;-64
2022/09/30 01:56:50;;;;;;;;;;;11.60;99.90;;;;;;5044621;28;20093;-65
2022/09/30 01:59:41;;;;;;;16.45;0.82;;;11.40;99.90;;;;;;5052983;28;19942;-64
2022/09/30 02:02:14;;;;;;;14.45;0.77;;;11.70;99.90;;;;;;5038763;28;20033;-64
2022/09/30 02:04:51;;;;;;;81.45;2.05;;;10.90;99.90;;;;;;5053977;28;20040;-64
2022/09/30 02:07:27;;;;;;;342.70;6.15;;;11.50;99.90;;;;;;5052117;28;20507;-65
2022/09/30 02:10:11;;;;;;;133.52;2.95;;;11.10;99.90;;;;;;5033943;28;20486;-65
2022/09/30 02:12:45;;;;;;;122.22;2.50;;;10.90;99.90;;;;;;5033696;28;20030;-64
2022/09/30 02:15:15;;;;;;;205.10;4.53;;;10.70;99.90;;;;;;5033618;28;20049;-64
2022/09/30 02:17:49;;;;;;;353.75;7.57;;;10.60;99.90;;;;;;5037438;28;20494;-65
2022/09/30 02:20:41;;;;;;;296.42;5.32;;;10.90;99.90;;;;;;5052721;28;20037;-64
2022/09/30 02:23:14;;;;;;;357.55;7.28;;;10.40;99.90;;;;;;5045576;28;20051;-64
2022/09/30 02:25:58;;;;;;;383.02;7.57;;;10.60;99.90;;;;;;5051828;28;20095;-64
2022/09/30 02:28:26;;;;;;;248.82;5.50;;;11.30;99.90;;;;;;5053847;28;20572;-64
2022/09/30 02:30:55;;;;;;;86.75;2.25;;;11.30;99.90;;;;;;5039601;28;20045;-64
2022/09/30 02:33:43;;;;;;;3.70;0.77;;;11.20;99.90;;;;;;5042336;28;20077;-64
2022/09/30 02:36:13;;;;;;;42.90;1.38;;;11.30;99.90;;;;;;5033459;28;20038;-65
2022/09/30 02:38:43;;;;;;;134.90;3.20;;;11.40;99.90;;;;;;5034086;28;20121;-64
2022/09/30 02:41:23;;;;;;;342.58;7.38;;;11.50;99.90;;;;;;5033343;28;20080;-64
2022/09/30 02:43:51;;;;;;;260.02;6.07;;;11.50;99.90;;;;;;5048072;28;20029;-64
2022/09/30 02:46:59;;;;;;;437.90;11.60;;;10.70;99.90;;;;;;5053086;28;20513;-65
2022/09/30 02:49:58;;;;;;;475.38;8.15;;;11.50;99.90;;;;;;5053108;28;20045;-64
2022/09/30 02:52:35;;;;;;;477.08;8.75;;;11.20;99.90;;;;;;5050528;28;20041;-65
2022/09/30 02:55:30;;;;;;;527.97;11.80;;;11.30;99.90;;;;;;5035558;28;20503;-64
2022/09/30 02:57:56;;;;;;;266.90;4.28;;;10.50;99.90;;;;;;5033179;28;20505;-64
2022/09/30 03:00:23;;;;;;;240.52;3.45;;;10.50;99.90;;;;;;5040087;28;20075;-64
2022/09/30 03:02:52;;;;;;;151.18;2.88;;;10.50;99.90;;;;;;5050450;28;20402;-64
2022/09/30 03:05:18;;;;;;;136.20;2.80;;;11.00;99.90;;;;;;5046763;28;20037;-64
2022/09/30 03:07:44;;;;;;;106.00;2.13;;;10.60;99.90;;;;;;5032772;28;20411;-64
2022/09/30 03:10:14;;;;;;;108.88;2.03;;;11.40;99.90;;;;;;5032488;28;20410;-65
2022/09/30 03:13:09;;;;;;;66.80;2.35;;;11.30;99.90;;;;;;5036307;28;20049;-64
2022/09/30 03:15:48;;;;;;;213.65;5.03;;;10.80;99.90;;;;;;5052447;28;20041;-64
2022/09/30 03:18:36;;;;;;;483.60;11.68;;;11.00;99.90;;;;;;5032895;28;20469;-65
2022/09/30 03:21:20;;;;;;;77.72;2.53;;;10.70;99.90;;;;;;5048003;28;20037;-65
2022/09/30 03:24:11;;;;;;;227.80;6.15;;;9.70;99.90;;;;;;5051520;28;20084;-64
2022/09/30 03:26:54;;;;;;;300.50;6.07;;;9.80;99.90;;;;;;5052042;28;20112;-64
2022/09/30 03:29:42;;;;;;;380.77;7.68;;;10.30;99.90;;;;;;5030754;28;20102;-64
2022/09/30 03:32:30;;;;;;;410.08;12.77;;;10.40;99.90;;;;;;5037253;28;20041;-64
2022/09/30 03:35:08;;;;;;;50.15;2.10;;;10.30;99.90;;;;;;5051338;28;20029;-64
2022/09/30 03:37:55;;;;;;;50.03;2.40;;;10.20;99.90;;;;;;5052008;28;20123;-64
2022/09/30 03:40:42;;;;;;;116.15;3.38;;;9.60;99.90;;;;;;5050365;28;20400;-64
2022/09/30 03:43:30;;;;;;;27.95;1.85;;;9.50;99.90;;;;;;5050923;28;20045;-65
2022/09/30 03:46:12;;;;;;;74.78;2.65;;;10.30;99.90;;;;;;5033544;28;20095;-65
2022/09/30 03:48:40;;;;;;;138.63;4.28;;;10.30;99.90;;;;;;5032436;28;20042;-65
2022/09/30 03:51:07;;;;;;;71.47;3.38;;;10.30;99.90;;;;;;5036861;28;20049;-65
2022/09/30 03:53:39;;;;;;;451.52;9.55;;;9.90;99.90;;;;;;5051915;28;20041;-64
2022/09/30 03:56:05;;;;;;;709.13;17.45;;;9.90;99.90;;;;;;5049005;28;20072;-64
2022/09/30 03:58:30;;;;;;;700.85;14.73;;;9.70;99.90;;;;;;5051300;28;20571;-64
2022/09/30 04:00:57;;;;;;;463.38;8.20;;;9.70;99.90;;;;;;5050869;28;20044;-64
2022/09/30 04:03:23;;;;;;;265.13;6.65;;;10.60;99.90;;;;;;5035596;28;20037;-64
2022/09/30 04:05:49;;;;;;;619.13;18.67;;;10.50;99.90;;;;;;5033008;28;20060;-64
2022/09/30 04:08:15;;;;;;;249.65;4.95;;;10.10;99.90;;;;;;5050628;28;20487;-65
2022/09/30 04:10:41;;;;;;;241.45;5.72;;;9.60;99.90;;;;;;5047319;28;20053;-65
2022/09/30 04:13:07;;;;;;;372.10;7.78;;;10.00;99.90;;;;;;5051783;28;20262;-65
2022/09/30 04:15:34;;;;;;;497.23;12.02;;;10.10;99.90;;;;;;5051358;28;20395;-64
2022/09/30 04:18:00;;;;;;;301.35;8.65;;;9.70;99.90;;;;;;5049887;28;20045;-64
2022/09/30 04:20:26;;;;;;;244.98;6.18;;;9.80;99.90;;;;;;5050748;28;20048;-65
2022/09/30 04:22:51;;;;;;;323.95;7.70;;;10.40;99.90;;;;;;5049016;28;20467;-65
2022/09/30 04:25:17;;;;;;;576.38;14.07;;;9.50;99.90;;;;;;5034352;28;20407;-65
2022/09/30 04:27:42;;;;;;;311.00;6.03;;;9.50;99.90;;;;;;5040349;28;20045;-64
2022/09/30 04:30:08;;;;;;;478.85;12.50;;;10.40;99.90;;;;;;5051162;28;20507;-64
2022/09/30 04:32:34;;;;;;;155.60;3.83;;;9.60;99.90;;;;;;5050624;28;20098;-65
2022/09/30 04:34:59;;;;;;;86.35;2.67;;;10.10;99.90;;;;;;5050533;28;20546;-64
2022/09/30 04:37:25;;;;;;;48.35;2.28;;;10.10;99.90;;;;;;5051233;28;20063;-64
2022/09/30 04:39:51;;;;;;;72.38;2.22;;;9.90;99.90;;;;;;5051132;28;20124;-65
2022/09/30 04:42:17;;;;;;;115.25;2.92;;;9.50;99.90;;;;;;5044614;28;20041;-64
2022/09/30 04:44:42;;;;;;;235.63;5.10;;;10.30;99.90;;;;;;5031311;28;20041;-64
2022/09/30 04:47:08;;;;;;;214.40;4.45;;;10.00;99.90;;;;;;5031542;28;20071;-65
2022/09/30 04:49:33;;;;;;;545.00;14.00;;;9.30;99.90;;;;;;5038066;28;20391;-64
2022/09/30 04:51:59;;;;;;;567.83;10.85;;;9.20;99.90;;;;;;5051031;28;20045;-65
2022/09/30 04:54:25;;;;;;;300.52;6.68;;;9.90;99.90;;;;;;5044557;28;20048;-64
2022/09/30 04:56:50;;;;;;;585.97;15.30;;;9.20;99.90;;;;;;5046303;28;20120;-64
2022/09/30 04:59:16;;;;;;;195.20;4.22;;;9.20;99.90;;;;;;5043034;28;20388;-64
2022/09/30 05:01:43;;;;;;;281.17;5.70;;;9.80;99.90;;;;;;5040487;28;20466;-64
2022/09/30 05:04:11;;;;;;;183.27;3.83;;;10.20;99.90;;;;;;5049539;28;20494;-64
2022/09/30 05:06:39;;;;;;;179.77;4.60;;;10.00;99.90;;;;;;5035158;28;20137;-65
2022/09/30 05:09:05;;;;;;;165.80;3.80;;;10.30;99.90;;;;;;5042513;28;20076;-64
2022/09/30 05:11:31;;;;;;;185.27;4.72;;;9.30;99.90;;;;;;5052348;28;20564;-64
2022/09/30 05:13:57;;;;;;;99.50;2.60;;;9.40;99.90;;;;;;5045425;28;20048;-65
2022/09/30 05:16:23;;;;;;;103.88;3.17;;;10.30;99.90;;;;;;5054663;28;20127;-64
2022/09/30 05:18:48;;;;;;;174.15;3.63;;;10.00;99.90;;;;;;5054197;28;20108;-65
2022/09/30 05:21:18;;;;;;;115.57;3.38;;;9.70;99.90;;;;;;5044694;28;20033;-64
2022/09/30 05:23:43;;;;;;;239.20;4.40;;;10.30;99.90;;;;;;5043016;28;20419;-64
2022/09/30 05:26:09;;;;;;;167.05;4.60;;;10.20;99.90;;;;;;5033472;28;20037;-65
2022/09/30 05:28:35;;;;;;;148.07;2.72;;;9.40;99.90;;;;;;5032784;28;20045;-65
2022/09/30 05:31:04;;;;;;;79.93;1.80;;;9.30;99.90;;;;;;5042306;28;20045;-64
2022/09/30 05:33:31;;;;;;;130.98;3.63;;;9.60;99.90;;;;;;5039447;28;20251;-65
2022/09/30 05:36:02;;;;;;;321.95;6.63;;;9.80;99.90;;;;;;5054618;28;20041;-64
2022/09/30 05:38:28;;;;;;;308.40;6.03;;;10.00;99.90;;;;;;5052345;28;20037;-64
2022/09/30 05:40:54;;;;;;;454.15;9.80;;;9.70;99.90;;;;;;5054603;28;20033;-65
2022/09/30 05:43:20;;;;;;;363.30;9.02;;;9.80;99.90;;;;;;5042888;28;20676;-65
2022/09/30 05:45:54;;;;;;;387.77;8.07;;;9.70;99.90;;;;;;5047282;28;20403;-65
2022/09/30 05:48:20;;;;;;;284.02;5.47;;;9.90;99.90;;;;;;5043799;28;20072;-65
2022/09/30 05:50:49;;;;;;;353.80;9.00;;;9.10;99.90;;;;;;5048804;28;20043;-65
2022/09/30 05:53:18;;;;;;;409.23;9.00;;;9.70;99.90;;;;;;5054091;28;20044;-64
2022/09/30 05:55:49;;;;;;;402.48;9.07;;;8.90;99.90;;;;;;5047646;28;20113;-65
2022/09/30 05:58:15;;;;;;;201.25;3.95;;;9.00;99.90;;;;;;5041481;28;20040;-65
2022/09/30 06:00:42;;;;;;;262.70;4.82;;;9.20;99.90;;;;;;5044379;28;20037;-65
2022/09/30 06:03:08;;;;;;;409.20;7.50;;;9.70;99.90;;;;;;5046993;28;20041;-64
2022/09/30 06:05:34;;;;;;;113.95;3.33;;;10.00;99.90;;;;;;5043665;28;20045;-65
2022/09/30 06:07:59;;;;;;;122.40;3.58;;;10.00;99.90;;;;;;5046688;28;20106;-65
2022/09/30 06:10:25;;;;;;;115.95;2.58;;;9.90;99.90;;;;;;5050573;28;20057;-65
2022/09/30 06:12:51;;;;;;;102.93;2.53;;;9.00;99.90;;;;;;5048402;28;20044;-65
2022/09/30 06:15:16;;;;;;;122.10;2.75;;;9.50;99.90;;;;;;5051497;28;20045;-65
2022/09/30 06:17:42;;;;;;;76.55;2.80;;;9.20;99.90;;;;;;5048145;28;20482;-65
2022/09/30 06:20:11;;;;;;;76.00;2.75;;;9.30;99.90;;;;;;5053417;28;20087;-65
2022/09/30 06:22:37;;;;;;;88.35;2.97;;;9.30;99.90;;;;;;5038641;28;20065;-65
2022/09/30 06:25:04;;;;;;;202.75;4.55;;;9.30;99.90;;;;;;5034048;28;20447;-66
2022/09/30 06:27:32;;;;;;;196.80;4.90;;;10.30;99.90;;;;;;5044303;28;20031;-65
2022/09/30 06:29:58;;;;;;;78.00;2.53;;;10.00;99.90;;;;;;5047890;28;20045;-65
2022/09/30 06:32:25;;;;;;;46.65;1.90;;;10.40;99.90;;;;;;5037693;28;20388;-65
2022/09/30 06:34:54;;;;;;;48.95;2.15;;;10.60;99.90;;;;;;5046724;28;20449;-65
2022/09/30 06:37:21;;;;;;;45.58;2.10;;;10.60;99.90;;;;;;5034730;28;20445;-65
2022/09/30 06:39:47;;;;;;;23.33;2.25;;;10.90;99.90;;;;;;5045438;28;20040;-65
2022/09/30 06:42:13;;;;;;;14.32;1.73;;;11.10;99.90;;;;;;5037392;28;20044;-65
2022/09/30 06:44:38;;;;;;;18.52;1.80;;;11.10;99.90;;;;;;5047578;28;20056;-65
2022/09/30 06:47:04;;;;;;;8.90;2.00;;;10.40;99.90;;;;;;5047511;28;20040;-65
2022/09/30 06:49:30;;;;;;;3.80;2.05;;;11.40;99.90;;;;;;5046005;28;20083;-65
2022/09/30 06:51:55;;;;;;;2.50;2.15;;;10.60;99.90;;;;;;5047730;28;20057;-65
2022/09/30 06:54:22;;;;;;;2.70;1.90;;;10.70;99.90;;;;;;5046470;28;20040;-66
2022/09/30 06:56:48;;;;;;;1.80;1.70;;;11.00;99.90;;;;;;5041418;28;20091;-65
2022/09/30 06:59:16;;;;;;;1.60;1.50;;;11.30;99.90;;;;;;5046207;28;20380;-66
2022/09/30 07:01:43;;;;;;;2.22;2.03;;;11.50;99.90;;;;;;5040046;28;20143;-65
2022/09/30 07:04:11;;;;;;;3.28;2.03;;;11.20;99.90;;;;;;5048488;28;20494;-65
2022/09/30 07:06:37;;;;;;;2.65;2.30;;;11.50;99.90;;;;;;5041697;28;20095;-65
2022/09/30 07:09:04;;;;;;;2.85;2.08;;;11.70;99.90;;;;;;5037791;28;20045;-66
2022/09/30 07:11:30;;;;;;;2.78;2.10;;;11.90;99.90;;;;;;5047784;28;20049;-66
2022/09/30 07:13:56;;;;;;;3.53;2.10;;;12.00;99.90;;;;;;5043126;28;20064;-65
2022/09/30 07:16:24;;;;;;;2.30;2.10;;;13.10;99.90;;;;;;5044280;28;20049;-65
2022/09/30 07:18:50;;;;;;;2.72;2.08;;;12.20;99.90;;;;;;5033451;28;20479;-63
2022/09/30 07:21:16;;;;;;;4.85;2.08;;;12.40;99.90;;;;;;5044865;28;20037;-63
2022/09/30 07:23:46;;;;;;;3.97;2.45;;;14.30;99.90;;;;;;5028044;28;20034;-63
2022/09/30 07:26:16;;;;;;;2.92;2.38;;;13.00;99.90;;;;;;5047479;28;20041;-63
2022/09/30 07:28:42;;;;;;;2.88;2.53;;;14.00;99.90;;;;;;5043454;28;20167;-64
2022/09/30 07:31:20;;;;;;;4.40;2.60;;;13.60;99.90;;;;;;5043245;28;20501;-63
2022/09/30 07:33:46;;;;;;;2.85;2.53;;;13.40;99.90;;;;;;5042922;28;20556;-65
2022/09/30 07:36:14;;;;;;;2.75;2.33;;;13.70;99.90;;;;;;5042946;28;20124;-65
2022/09/30 07:38:41;;;;;;;4.75;2.78;;;14.40;99.90;;;;;;5043850;28;20098;-65
2022/09/30 07:41:23;;;;;;;5.10;2.50;;;13.90;99.90;;;;;;5034260;28;20569;-65
2022/09/30 07:43:49;;;;;;;2.90;2.53;;;15.40;99.90;;;;;;5046634;28;20098;-65
2022/09/30 07:46:19;;;;;;;3.45;2.53;;;15.20;99.90;;;;;;5044248;28;20155;-65
2022/09/30 07:48:47;;;;;;;2.58;2.38;;;14.50;99.90;;;;;;5039724;28;20068;-65
2022/09/30 07:51:36;;;;;;;3.20;2.78;;;14.50;99.90;;;;;;5042596;28;20098;-66
2022/09/30 07:54:07;;;;;;;2.42;2.22;;;14.80;99.90;;;;;;5039391;28;20101;-65
2022/09/30 07:56:33;;;;;;;2.30;2.10;;;14.90;99.90;;;;;;5049545;28;20033;-65
2022/09/30 07:59:00;;;;;;;4.57;2.38;;;15.50;99.90;;;;;;5037769;28;20053;-65
2022/09/30 08:01:27;;;;;;;6.38;2.90;;;17.40;99.90;;;;;;5038647;28;20542;-65
2022/09/30 08:03:55;;;;;;;3.08;2.35;;;18.00;99.90;;;;;;5043807;28;20789;-65
2022/09/30 08:06:22;;;;;;;2.35;2.08;;;18.40;99.90;;;;;;5040571;28;20402;-65
2022/09/30 08:08:50;;;;;;;3.35;2.13;;;17.10;99.90;;;;;;5045025;28;20048;-65
2022/09/30 08:11:16;;;;;;;3.60;1.90;;;18.60;99.90;;;;;;5039377;28;20058;-65
2022/09/30 08:14:20;;;;;;;5.90;1.80;;;17.80;99.90;;;;;;5034828;28;20049;-65
2022/09/30 08:16:46;;;;;;;1.65;1.55;;;18.70;99.90;;;;;;5043462;28;20731;-65
2022/09/30 08:19:15;;;;;;;2.35;1.50;;;18.00;99.90;;;;;;5036805;28;20037;-66
2022/09/30 08:21:41;;;;;;;2.38;1.50;;;19.30;99.90;;;;;;5039759;28;20674;-66
2022/09/30 08:24:08;;;;;;;1.67;1.58;;;18.90;99.90;;;;;;5043429;28;20075;-66
2022/09/30 08:26:33;;;;;;;1.95;1.30;;;20.10;99.90;;;;;;5041902;28;20521;-65
2022/09/30 08:28:59;;;;;;;3.40;1.60;;;19.90;99.90;;;;;;5043177;28;20041;-66
2022/09/30 08:31:25;;;;;;;3.67;1.77;;;20.20;99.90;;;;;;5039014;28;20040;-65
2022/09/30 08:33:51;;;;;;;3.55;1.90;;;19.40;99.90;;;;;;5050307;28;20029;-65
2022/09/30 08:36:20;;;;;;;1.63;1.42;;;19.70;99.90;;;;;;5045001;28;20028;-65
2022/09/30 08:38:46;;;;;;;1.60;1.50;;;20.50;99.90;;;;;;5039178;28;20045;-65
2022/09/30 08:41:33;;;;;;;2.08;1.38;;;20.60;99.90;;;;;;5050232;28;20025;-66
2022/09/30 08:44:18;;;;;;;4.50;1.30;;;20.90;99.90;;;;;;5034059;28;20502;-66
2022/09/30 08:46:45;;;;;;;2.03;1.25;;;20.90;99.90;;;;;;5032739;28;20042;-65
2022/09/30 08:49:43;;;;;;;2.47;1.10;;;20.10;99.90;;;;;;5031126;28;20499;-65
2022/09/30 08:52:18;;;;;;;1.10;1.00;;;20.30;99.90;;;;;;5041364;28;20044;-65
2022/09/30 08:54:48;;;;;;;5.07;1.10;;;20.60;99.90;;;;;;5039303;28;20046;-65
2022/09/30 08:57:15;;;;;;;1.98;1.20;;;20.50;99.90;;;;;;5040801;28;20034;-65
2022/09/30 08:59:47;;;;;;;1.33;1.17;;;20.80;99.90;;;;;;5039086;28;20124;-65
2022/09/30 09:02:55;;;;;;;2.60;1.25;;;20.20;99.90;;;;;;5040053;28;20033;-65
2022/09/30 09:05:30;;;;;;;1.38;1.15;;;20.70;99.90;;;;;;5021099;28;20175;-65
2022/09/30 09:08:08;;;;;;;2.38;1.50;;;20.70;99.90;;;;;;5035677;28;20045;-64
2022/09/30 09:10:42;;;;;;;2.83;1.63;;;20.00;99.90;;;;;;5040747;28;20048;-66
2022/09/30 09:13:34;;;;;;;1.80;1.13;;;20.50;99.90;;;;;;5038411;28;20111;-67
2022/09/30 09:16:13;;;;;;;1.80;1.27;;;20.20;99.90;;;;;;5037954;28;20040;-66
2022/09/30 09:18:50;;;;;;;1.10;1.00;;;20.20;99.90;;;;;;5044823;28;20502;-67
2022/09/30 09:21:38;;;;;;;1.77;1.15;;;20.00;99.90;;;;;;5038351;28;20033;-66
2022/09/30 09:24:11;;;;;;;2.30;1.30;;;19.80;99.90;;;;;;5042284;28;20051;-67
2022/09/30 09:26:36;;;;;;;3.40;1.45;;;19.40;99.90;;;;;;5041610;28;20051;-66
2022/09/30 09:29:19;;;;;;;2.78;1.45;;;19.50;99.90;;;;;;5038107;28;20403;-66
2022/09/30 09:31:44;;;;;;;3.63;1.38;;;19.50;99.90;;;;;;5042616;28;20418;-65
2022/09/30 09:34:12;;;;;;;4.53;1.60;;;19.90;99.90;;;;;;5047760;28;20053;-64
2022/09/30 09:37:08;;;;;;;2.08;1.13;;;20.30;99.90;;;;;;5054196;28;20051;-64
2022/09/30 09:39:52;;;;;;;2.65;1.13;;;20.20;99.90;;;;;;5053435;28;20049;-65
2022/09/30 09:42:27;;;;;;;2.03;1.08;;;19.70;99.90;;;;;;5054154;28;20049;-64
2022/09/30 09:45:16;;;;;;;2.28;1.65;;;20.10;99.90;;;;;;5054484;28;20047;-64
2022/09/30 09:47:46;;;;;;;6.32;1.27;;;20.10;99.90;;;;;;5053284;28;20049;-64
2022/09/30 09:50:20;;;;;;;1.65;1.05;;;19.70;99.90;;;;;;5054327;28;20056;-64
2022/09/30 09:52:56;;;;;;;1.30;1.00;;;19.90;99.90;;;;;;5054038;28;20037;-64
2022/09/30 09:55:22;;;;;;;2.92;1.02;;;19.80;99.90;;;;;;5054108;28;20060;-64
2022/09/30 09:58:08;;;;;;;1.63;1.17;;;19.80;99.90;;;;;;5046689;28;20514;-64
2022/09/30 10:03:18;;;;;;;1.27;1.15;;;20.10;99.90;;;;;;5034193;28;20048;-65
2022/09/30 10:05:46;;;;;;;2.97;1.10;;;20.10;99.90;;;;;;5046552;28;20644;-64
2022/09/30 10:08:19;;;;;;;1.15;1.08;;;19.90;99.90;;;;;;5054167;28;20041;-64
2022/09/30 10:10:48;;;;;;;1.63;1.25;;;20.30;1.00;;;;;;5052225;28;20076;-64
2022/09/30 10:13:25;;;;;;;2.67;1.42;;;20.30;99.90;;;;;;5037067;28;20049;-64
2022/09/30 10:15:56;;;;;;;1.60;1.50;;;20.30;99.90;;;;;;5032461;28;20113;-64
2022/09/30 10:18:33;;;;;;;3.22;1.33;;;20.00;99.90;;;;;;5034023;28;20144;-64
2022/09/30 10:21:06;;;;;;;1.35;1.13;;;20.60;99.90;;;;;;5033847;28;20037;-64
2022/09/30 10:23:36;;;;;;;1.70;1.20;;;20.00;99.90;;;;;;5049331;28;20072;-64
2022/09/30 10:26:13;;;;;;;2.00;0.90;;;20.00;99.90;;;;;;5051701;28;20402;-63
2022/09/30 10:28:49;;;;;;;3.13;1.30;;;20.10;38.00;;;;;;5044691;28;20045;-64
2022/09/30 10:31:37;;;;;;;1.42;1.00;;;20.10;1.00;;;;;;5034676;28;20064;-64
2022/09/30 10:34:26;;;;;;;1.13;1.02;;;20.20;99.90;;;;;;5033001;28;20045;-64
2022/09/30 10:36:53;;;;;;;1.58;1.00;;;20.20;99.90;;;;;;5042883;28;20033;-64
2022/09/30 10:39:36;;;;;;;1.35;1.25;;;20.40;84.50;;;;;;5049988;28;20572;-64
2022/09/30 10:42:07;;;;;;;1.92;1.40;;;20.20;1.00;;;;;;5048656;28;20061;-64
2022/09/30 10:44:44;;;;;;;1.45;1.13;;;20.60;1.00;;;;;;5050828;28;20033;-64
2022/09/30 10:47:15;;;;;;;1.90;1.58;;;20.30;1.00;;;;;;5052972;28;20396;-64
2022/09/30 10:49:55;;;;;;;4.65;1.70;;;20.50;99.90;;;;;;5053384;28;20544;-64
2022/09/30 10:52:30;;;;;;;1.60;1.45;;;20.50;94.40;;;;;;5034308;28;20041;-63
2022/09/30 10:55:15;;;;;;;2.43;1.40;;;20.50;1.00;;;;;;5031690;28;20053;-64
2022/09/30 10:57:41;;;;;;;1.63;1.52;;;20.30;99.90;;;;;;5032915;28;20359;-64
2022/09/30 11:00:33;;;;;;;2.30;1.90;;;20.60;99.90;;;;;;5033852;28;20025;-63
2022/09/30 11:03:09;;;;;;;2.38;1.80;;;20.80;1.00;;;;;;5039764;28;20038;-64
2022/09/30 11:05:41;;;;;;;2.10;1.60;;;20.50;1.00;;;;;;5032800;28;20088;-64
2022/09/30 11:08:16;;;;;;;2.58;1.60;;;20.40;99.90;;;;;;5032823;28;20044;-65
2022/09/30 11:10:55;;;;;;;2.55;1.80;;;20.20;99.90;;;;;;5032458;28;20392;-64
2022/09/30 11:13:39;;;;;;;2.92;1.92;;;20.20;99.90;;;;;;5033173;28;20091;-64
2022/09/30 11:16:08;;;;;;;3.55;2.10;;;20.10;99.90;;;;;;5049353;28;20045;-63
2022/09/30 11:19:00;;;;;;;2.50;1.80;;;20.00;99.90;;;;;;5038263;28;20049;-64
2022/09/30 11:21:44;;;;;;;2.85;1.80;;;20.00;99.90;;;;;;5033705;28;20532;-63
2022/09/30 11:24:13;;;;;;;1.90;1.30;;;20.10;1.00;;;;;;5072755;28;20040;-64
2022/09/30 11:27:06;;;;;;;1.65;1.50;;;20.00;50.90;;;;;;5072557;28;20059;-64
2022/09/30 11:29:52;;;;;;;1.98;1.40;;;19.90;99.90;;;;;;5047928;28;20120;-64
2022/09/30 11:32:24;;;;;;;1.75;1.60;;;20.10;13.50;;;;;;5051111;28;20071;-64
2022/09/30 11:35:00;;;;;;;2.75;1.40;;;19.80;99.90;;;;;;5052292;28;20578;-64
2022/09/30 11:37:29;;;;;;;1.95;1.23;;;20.20;1.00;;;;;;5051067;28;20041;-64
2022/09/30 11:40:20;;;;;;;1.45;1.15;;;20.20;99.90;;;;;;5052331;28;20094;-64
2022/09/30 11:43:03;;;;;;;2.03;1.08;;;19.80;99.90;;;;;;5052274;28;20035;-64
2022/09/30 11:45:49;;;;;;;1.73;1.30;;;19.80;99.90;;;;;;5051741;28;20045;-64
2022/09/30 11:48:31;;;;;;;2.37;1.40;;;20.20;99.90;;;;;;5050434;28;20053;-64
2022/09/30 11:51:05;;;;;;;1.58;1.42;;;19.90;4.50;;;;;;5032198;28;20045;-64
2022/09/30 11:53:53;;;;;;;1.58;1.30;;;20.20;1.00;;;;;;5048571;28;20044;-64
2022/09/30 11:56:41;;;;;;;2.42;1.35;;;19.80;99.90;;;;;;5050434;28;20048;-64
2022/09/30 11:59:25;;;;;;;2.50;1.20;;;20.00;1.00;;;;;;5051850;28;20541;-64
2022/09/30 12:01:54;;;;;;;1.08;1.00;;;19.90;1.00;;;;;;5051779;28;20090;-65
2022/09/30 12:04:41;;;;;;;1.33;1.23;;;20.10;1.00;;;;;;5052282;28;20041;-64
2022/09/30 12:07:19;;;;;;;2.17;1.10;;;20.10;1.00;;;;;;5051720;28;20123;-64
2022/09/30 12:10:00;;;;;;;2.55;1.35;;;20.00;29.00;;;;;;5050081;28;20463;-64
2022/09/30 12:12:25;;;;;;;1.55;1.05;;;20.00;1.00;;;;;;5051729;28;20110;-64
2022/09/30 12:14:59;;;;;;;1.58;1.15;;;19.90;99.90;;;;;;5051672;28;20494;-64
2022/09/30 12:17:30;;;;;;;1.33;0.57;;;20.10;99.90;;;;;;5051496;28;20059;-64
2022/09/30 12:19:58;;;;;;;0.68;0.68;;;20.00;99.90;;;;;;5050631;28;20036;-64
2022/09/30 12:22:39;;;;;;;0.65;0.52;;;20.00;99.90;;;;;;5051735;28;20033;-64
2022/09/30 12:25:28;;;;;;;1.88;0.95;;;19.90;43.10;;;;;;5051289;28;20041;-64
2022/09/30 12:30:15;;;;;;;4.10;1.25;;;20.00;99.90;;;;;;5050604;28;20095;-64
2022/09/30 12:30:57;;;;;;;1.58;0.93;;;19.90;1.00;;;;;;5051022;28;20056;-65
2022/09/30 12:33:42;;;;;;;2.72;1.40;;;20.00;99.90;;;;;;5051588;28;20037;-65
2022/09/30 12:36:24;;;;;;;1.40;1.27;;;20.10;99.90;;;;;;5051302;28;20116;-65
2022/09/30 12:39:01;;;;;;;3.47;1.70;;;20.10;64.80;;;;;;5050637;28;20041;-65
2022/09/30 12:41:47;;;;;;;3.40;1.98;;;20.30;99.90;;;;;;5051394;28;20525;-65
2022/09/30 12:44:25;;;;;;;3.15;1.85;;;20.10;99.90;;;;;;5049830;28;20045;-64
2022/09/30 12:47:17;;;;;;;3.45;1.75;;;20.00;99.90;;;;;;5051321;28;20063;-65
2022/09/30 12:49:43;;;;;;;2.72;2.17;;;20.20;1.00;;;;;;5050176;28;20106;-64
2022/09/30 12:52:16;;;;;;;3.25;2.20;;;19.90;20.60;;;;;;5051308;28;20045;-64
2022/09/30 12:54:56;;;;;;;4.70;2.80;;;19.80;99.90;;;;;;5051025;28;20048;-64
2022/09/30 12:57:31;;;;;;;5.25;2.55;;;19.80;99.90;;;;;;5050907;28;20090;-64
2022/09/30 13:00:03;;;;;;;3.35;2.50;;;19.70;1.00;;;;;;5034129;28;20503;-65
2022/09/30 13:02:39;;;;;;;3.63;2.50;;;19.70;99.90;;;;;;5030143;28;20129;-65
2022/09/30 13:05:26;;;;;;;3.15;2.53;;;20.00;99.90;;;;;;5029808;28;20148;-65
2022/09/30 13:08:04;;;;;;;3.30;2.55;;;19.60;1.00;;;;;;5045769;28;20040;-64
2022/09/30 13:10:31;;;;;;;5.40;3.25;;;19.90;1.00;;;;;;5052153;28;20135;-65
2022/09/30 13:13:09;;;;;;;4.07;2.65;;;19.70;99.90;;;;;;5054984;28;20095;-65
2022/09/30 13:15:37;;;;;;;4.10;2.88;;;19.50;99.90;;;;;;5054612;28;20059;-65